createdAt,value
2018-05-04T00:00:12.311Z,10.50
2018-05-04T00:02:40.974Z,10.40
2018-05-04T00:05:09.656Z,10.40
2018-05-04T00:07:38.227Z,10.40
2018-05-04T00:10:06.864Z,10.40
2018-05-04T00:12:35.491Z,10.40
2018-05-04T00:15:04.161Z,10.40
2018-05-04T00:17:33.282Z,10.30
2018-05-04T00:20:01.895Z,10.30
2018-05-04T00:22:30.553Z,10.30
2018-05-04T00:24:59.164Z,10.30
2018-05-04T00:27:27.795Z,10.30
2018-05-04T00:29:57.177Z,10.20
2018-05-04T00:32:25.774Z,10.20
2018-05-04T00:34:54.408Z,10.30
2018-05-04T00:37:23.013Z,10.20
2018-05-04T00:39:51.638Z,10.20
2018-05-04T00:42:20.301Z,10.10
2018-05-04T00:44:48.984Z,10.10
2018-05-04T00:47:18.420Z,10.00
2018-05-04T00:49:47.018Z,10.00
2018-05-04T00:52:16.403Z,10.00
2018-05-04T00:54:45.067Z,10.00
2018-05-04T00:57:13.711Z,10.00
2018-05-04T00:59:43.118Z,9.90
2018-05-04T01:02:11.714Z,9.90
2018-05-04T01:04:40.349Z,9.90
2018-05-04T01:07:08.992Z,9.90
2018-05-04T01:09:37.631Z,9.80
2018-05-04T01:12:06.319Z,9.80
2018-05-04T01:14:34.944Z,9.80
2018-05-04T01:17:03.586Z,9.70
2018-05-04T01:19:32.232Z,9.70
2018-05-04T01:22:00.819Z,9.70
2018-05-04T01:24:29.488Z,9.70
2018-05-04T01:26:58.856Z,9.70
2018-05-04T01:29:27.492Z,9.70
2018-05-04T01:31:56.090Z,9.70
2018-05-04T01:34:24.718Z,9.60
2018-05-04T01:36:53.355Z,9.60
2018-05-04T01:39:21.969Z,9.60
2018-05-04T01:41:50.619Z,9.50
2018-05-04T01:44:19.240Z,9.50
2018-05-04T01:46:47.863Z,9.50
2018-05-04T01:49:16.479Z,9.50
2018-05-04T01:51:45.135Z,9.50
2018-05-04T01:54:13.737Z,9.50
2018-05-04T01:56:43.158Z,9.40
2018-05-04T01:59:12.533Z,9.40
2018-05-04T02:01:41.195Z,9.40
2018-05-04T02:04:09.825Z,9.30
2018-05-04T02:06:39.246Z,9.30
2018-05-04T02:09:07.607Z,9.30
2018-05-04T02:11:36.206Z,9.30
2018-05-04T02:14:05.612Z,9.30
2018-05-04T02:16:35.029Z,9.30
2018-05-04T02:19:03.647Z,9.20
2018-05-04T02:21:32.279Z,9.30
2018-05-04T02:24:00.876Z,9.20
2018-05-04T02:26:30.281Z,9.20
2018-05-04T02:28:59.690Z,9.10
2018-05-04T02:31:29.046Z,9.10
2018-05-04T02:33:57.677Z,9.10
2018-05-04T02:36:27.060Z,9.10
2018-05-04T02:38:55.687Z,9.00
2018-05-04T02:41:24.330Z,9.00
2018-05-04T02:43:52.916Z,9.00
2018-05-04T02:46:21.609Z,9.00
2018-05-04T02:48:50.977Z,9.00
2018-05-04T02:51:19.630Z,9.00
2018-05-04T02:53:48.281Z,9.00
2018-05-04T02:56:16.895Z,9.00
2018-05-04T02:58:45.556Z,9.00
2018-05-04T03:01:14.185Z,9.00
2018-05-04T03:03:42.838Z,8.90
2018-05-04T03:06:11.494Z,8.90
2018-05-04T03:08:40.278Z,8.90
2018-05-04T03:11:08.924Z,8.90
2018-05-04T03:13:37.555Z,8.80
2018-05-04T03:16:06.192Z,8.80
2018-05-04T03:18:35.606Z,8.80
2018-05-04T03:21:04.199Z,8.80
2018-05-04T03:23:33.596Z,8.80
2018-05-04T03:26:02.391Z,8.70
2018-05-04T03:28:31.771Z,8.70
2018-05-04T03:31:00.428Z,8.70
2018-05-04T03:33:29.073Z,8.60
2018-05-04T03:35:58.466Z,8.60
2018-05-04T03:38:29.012Z,8.60
2018-05-04T03:40:57.669Z,8.60
2018-05-04T03:43:26.272Z,8.60
2018-05-04T03:45:54.906Z,8.60
2018-05-04T03:48:23.546Z,8.60
2018-05-04T03:50:54.020Z,8.70
2018-05-04T03:53:22.663Z,8.70
2018-05-04T03:55:51.291Z,8.70
2018-05-04T03:58:31.013Z,8.60
2018-05-04T04:01:11.509Z,8.50
2018-05-04T04:03:51.298Z,8.60
2018-05-04T04:09:15.636Z,8.50
2018-05-04T04:11:45.004Z,8.50
2018-05-04T04:14:13.588Z,8.50
2018-05-04T04:16:42.201Z,8.50
2018-05-04T04:19:11.555Z,8.50
2018-05-04T04:21:40.199Z,8.50
2018-05-04T04:24:08.865Z,8.50
2018-05-04T04:26:37.481Z,8.50
2018-05-04T04:29:06.870Z,8.50
2018-05-04T04:31:35.460Z,8.50
2018-05-04T04:34:04.860Z,8.50
2018-05-04T04:36:34.270Z,8.50
2018-05-04T04:39:02.916Z,8.50
2018-05-04T04:41:31.541Z,8.60
2018-05-04T04:44:00.120Z,8.60
2018-05-04T04:46:28.785Z,8.60
2018-05-04T04:48:57.413Z,8.60
2018-05-04T04:51:26.817Z,8.60
2018-05-04T04:53:56.212Z,8.70
2018-05-04T04:56:24.816Z,8.70
2018-05-04T04:58:54.251Z,8.70
2018-05-04T05:01:22.893Z,8.70
2018-05-04T05:03:52.307Z,9.00
2018-05-04T05:06:20.898Z,9.00
2018-05-04T05:08:50.294Z,9.30
2018-05-04T05:11:19.648Z,9.40
2018-05-04T05:13:48.270Z,9.40
2018-05-04T05:16:16.897Z,9.50
2018-05-04T05:18:45.522Z,9.70
2018-05-04T05:21:14.143Z,9.80
2018-05-04T05:23:42.820Z,10.00
2018-05-04T05:26:12.368Z,10.20
2018-05-04T05:28:40.998Z,10.20
2018-05-04T05:31:09.643Z,10.40
2018-05-04T05:33:38.290Z,10.50
2018-05-04T05:36:06.901Z,10.70
2018-05-04T05:38:36.323Z,10.90
2018-05-04T05:41:04.620Z,10.90
2018-05-04T05:43:33.287Z,10.90
2018-05-04T05:46:01.904Z,11.00
2018-05-04T05:48:30.354Z,11.10
2018-05-04T05:51:00.718Z,11.10
2018-05-04T05:53:29.392Z,11.00
2018-05-04T05:55:58.026Z,11.00
2018-05-04T05:58:26.642Z,11.00
2018-05-04T06:00:56.065Z,11.00
2018-05-04T06:03:24.667Z,11.00
2018-05-04T06:05:53.303Z,11.20
2018-05-04T06:08:21.946Z,11.20
2018-05-04T06:10:50.586Z,11.20
2018-05-04T06:13:19.992Z,11.40
2018-05-04T06:15:54.099Z,11.50
2018-05-04T06:18:22.795Z,11.40
2018-05-04T06:20:52.276Z,11.60
2018-05-04T06:23:20.885Z,11.60
2018-05-04T06:25:49.524Z,11.60
2018-05-04T06:28:18.173Z,11.70
2018-05-04T06:30:46.764Z,11.80
2018-05-04T06:33:15.416Z,11.80
2018-05-04T06:35:44.035Z,11.90
2018-05-04T06:38:13.405Z,12.20
2018-05-04T06:40:42.049Z,12.20
2018-05-04T06:43:10.656Z,12.30
2018-05-04T06:45:39.304Z,12.20
2018-05-04T06:48:07.961Z,12.10
2018-05-04T06:50:36.572Z,12.00
2018-05-04T06:53:05.363Z,12.50
2018-05-04T06:55:34.715Z,12.60
2018-05-04T06:58:03.362Z,12.60
2018-05-04T07:00:32.041Z,12.90
2018-05-04T07:03:03.597Z,13.00
2018-05-04T07:05:33.017Z,12.90
2018-05-04T07:08:01.605Z,13.00
2018-05-04T07:10:30.291Z,13.10
2018-05-04T07:12:59.124Z,13.00
2018-05-04T07:15:27.845Z,13.00
2018-05-04T07:17:56.454Z,13.10
2018-05-04T07:20:25.094Z,13.30
2018-05-04T07:22:53.704Z,13.20
2018-05-04T07:25:22.357Z,13.40
2018-05-04T07:27:50.984Z,13.90
2018-05-04T07:30:19.678Z,14.10
2018-05-04T07:32:49.109Z,14.10
2018-05-04T07:35:17.760Z,14.10
2018-05-04T07:37:49.621Z,14.50
2018-05-04T07:40:19.113Z,14.60
2018-05-04T07:42:48.888Z,14.60
2018-05-04T07:45:17.992Z,14.60
2018-05-04T07:47:46.607Z,14.70
2018-05-04T07:50:15.289Z,14.70
2018-05-04T07:52:43.898Z,14.90
2018-05-04T07:55:12.545Z,15.00
2018-05-04T07:57:41.355Z,15.10
2018-05-04T08:00:10.013Z,15.40
2018-05-04T08:02:40.689Z,15.30
2018-05-04T08:05:09.343Z,15.30
2018-05-04T08:07:37.990Z,15.30
2018-05-04T08:10:06.620Z,15.70
2018-05-04T08:12:35.226Z,15.90
2018-05-04T08:15:03.849Z,15.90
2018-05-04T08:17:32.475Z,15.90
2018-05-04T08:20:01.102Z,15.90
2018-05-04T08:22:29.929Z,16.00
2018-05-04T08:24:58.612Z,16.40
2018-05-04T08:27:27.822Z,16.40
2018-05-04T08:29:56.615Z,16.40
2018-05-04T08:32:26.008Z,16.50
2018-05-04T08:34:55.413Z,16.30
2018-05-04T08:37:24.808Z,16.40
2018-05-04T08:39:53.460Z,16.40
2018-05-04T08:42:22.092Z,16.30
2018-05-04T08:44:51.467Z,16.70
2018-05-04T08:47:20.093Z,16.60
2018-05-04T08:49:49.781Z,16.80
2018-05-04T08:52:18.413Z,17.00
2018-05-04T08:54:47.132Z,17.20
2018-05-04T08:57:15.895Z,17.40
2018-05-04T08:59:44.658Z,17.50
2018-05-04T09:02:14.037Z,17.40
2018-05-04T09:04:52.381Z,17.40
2018-05-04T09:07:20.961Z,18.20
2018-05-04T09:09:53.177Z,18.60
2018-05-04T09:12:21.839Z,18.60
2018-05-04T09:14:50.516Z,18.70
2018-05-04T09:17:23.047Z,19.00
2018-05-04T09:19:51.684Z,19.00
2018-05-04T09:22:20.334Z,18.80
2018-05-04T09:24:48.963Z,18.80
2018-05-04T09:27:18.387Z,19.40
2018-05-04T09:29:47.752Z,19.60
2018-05-04T09:32:16.357Z,19.60
2018-05-04T09:34:44.985Z,19.90
2018-05-04T09:37:15.284Z,20.10
2018-05-04T09:39:44.109Z,20.20
2018-05-04T09:42:12.773Z,20.30
2018-05-04T09:44:41.405Z,20.50
2018-05-04T09:47:10.070Z,20.50
2018-05-04T09:49:38.865Z,20.60
2018-05-04T09:52:11.995Z,20.40
2018-05-04T09:54:41.407Z,20.60
2018-05-04T09:57:10.776Z,20.40
2018-05-04T09:59:39.379Z,20.40
2018-05-04T10:02:07.981Z,20.30
2018-05-04T10:04:37.375Z,20.50
2018-05-04T10:07:06.024Z,20.50
2018-05-04T10:09:34.664Z,20.60
2018-05-04T10:12:03.292Z,20.30
2018-05-04T10:14:31.925Z,20.70
2018-05-04T10:17:00.537Z,20.80
2018-05-04T10:19:29.133Z,21.10
2018-05-04T10:21:57.851Z,21.30
2018-05-04T10:24:26.561Z,21.20
2018-05-04T10:26:55.213Z,21.60
2018-05-04T10:29:23.848Z,21.70
2018-05-04T10:31:52.311Z,21.70
2018-05-04T10:34:20.744Z,21.70
2018-05-04T10:36:49.646Z,21.70
2018-05-04T10:39:18.287Z,21.90
2018-05-04T10:41:47.139Z,22.00
2018-05-04T10:44:17.652Z,22.20
2018-05-04T10:46:46.275Z,22.40
2018-05-04T10:49:15.857Z,22.50
2018-05-04T10:51:44.527Z,22.80
2018-05-04T10:54:15.522Z,23.40
2018-05-04T10:56:44.301Z,23.70
2018-05-04T10:59:13.982Z,23.90
2018-05-04T11:01:42.743Z,23.50
2018-05-04T11:04:11.345Z,23.90
2018-05-04T11:06:41.034Z,23.70
2018-05-04T11:09:09.625Z,23.90
2018-05-04T11:11:38.389Z,23.20
2018-05-04T13:43:59.667Z,31.50
2018-05-04T13:46:28.254Z,31.30
2018-05-04T14:11:23.547Z,31.80
2018-05-04T14:16:22.342Z,32.00
2018-05-04T14:18:50.968Z,32.40
2018-05-04T14:23:49.244Z,32.10
2018-05-04T14:26:17.896Z,31.60
2018-05-04T14:28:46.504Z,32.70
2018-05-04T14:41:13.291Z,32.40
2018-05-04T14:43:41.951Z,32.00
2018-05-04T14:46:11.341Z,31.90
2018-05-04T14:48:39.998Z,31.80
2018-05-04T14:51:08.629Z,31.10
2018-05-04T14:53:41.428Z,30.50
2018-05-04T14:56:09.868Z,30.50
2018-05-04T14:58:38.599Z,31.10
2018-05-04T15:01:07.385Z,30.40
2018-05-04T15:03:36.791Z,30.20
2018-05-04T15:06:06.289Z,29.70
2018-05-04T15:08:35.687Z,29.50
2018-05-04T15:11:05.138Z,29.20
2018-05-04T15:13:33.752Z,29.10
2018-05-04T15:16:02.408Z,29.30
2018-05-04T15:18:31.244Z,28.90
2018-05-04T15:20:59.850Z,29.70
2018-05-04T15:23:28.512Z,29.70
2018-05-04T15:25:57.135Z,29.40
2018-05-04T15:28:25.557Z,29.10
2018-05-04T15:30:54.185Z,28.70
2018-05-04T15:33:22.758Z,27.00
2018-05-04T15:35:51.509Z,25.50
2018-05-04T15:38:20.112Z,24.60
2018-05-04T15:40:48.744Z,23.60
2018-05-04T15:43:18.086Z,22.80
2018-05-04T15:45:46.859Z,22.70
2018-05-04T15:48:20.979Z,22.50
2018-05-04T15:50:54.966Z,22.30
2018-05-04T15:53:24.384Z,21.90
2018-05-04T15:55:53.790Z,22.00
2018-05-04T15:58:22.437Z,22.00
2018-05-04T16:00:56.246Z,21.80
2018-05-04T16:03:24.859Z,21.60
2018-05-04T16:05:54.296Z,21.40
2018-05-04T16:08:22.956Z,21.40
2018-05-04T16:10:52.525Z,21.30
2018-05-04T16:13:21.173Z,21.20
2018-05-04T16:15:49.781Z,21.30
2018-05-04T16:18:18.468Z,21.20
2018-05-04T16:20:47.097Z,21.10
2018-05-04T16:23:15.752Z,21.00
2018-05-04T16:25:44.424Z,20.90
2018-05-04T16:28:13.019Z,20.90
2018-05-04T16:30:41.731Z,20.90
2018-05-04T16:33:10.124Z,20.80
2018-05-04T16:35:38.784Z,20.60
2018-05-04T16:38:07.433Z,20.40
2018-05-04T16:40:36.030Z,20.40
2018-05-04T16:43:05.785Z,20.30
2018-05-04T16:45:34.386Z,20.20
2018-05-04T16:48:08.484Z,20.20
2018-05-04T16:50:37.173Z,20.20
2018-05-04T16:53:07.954Z,20.10
2018-05-04T16:55:37.341Z,19.90
2018-05-04T16:58:05.887Z,19.90
2018-05-04T17:00:34.779Z,19.80
2018-05-04T17:03:04.099Z,19.70
2018-05-04T17:05:32.853Z,19.60
2018-05-04T17:08:01.491Z,19.60
2018-05-04T17:10:29.919Z,19.50
2018-05-04T17:12:58.350Z,19.50
2018-05-04T17:15:26.823Z,19.50
2018-05-04T17:17:57.498Z,19.40
2018-05-04T17:20:26.286Z,19.40
2018-05-04T17:22:54.877Z,19.40
2018-05-04T17:25:23.323Z,19.30
2018-05-04T17:27:52.084Z,19.10
2018-05-04T17:30:20.500Z,19.10
2018-05-04T17:32:57.463Z,19.00
2018-05-04T17:35:27.372Z,18.90
2018-05-04T17:37:56.008Z,18.80
2018-05-04T17:40:26.456Z,18.80
2018-05-04T17:42:55.296Z,18.70
2018-05-04T17:45:23.761Z,18.60
2018-05-04T17:47:52.354Z,18.60
2018-05-04T17:50:21.013Z,18.50
2018-05-04T17:52:50.400Z,18.30
2018-05-04T17:55:21.030Z,18.30
2018-05-04T17:57:55.196Z,18.20
2018-05-04T18:00:23.973Z,18.10
2018-05-04T18:02:52.625Z,18.00
2018-05-04T18:05:21.236Z,17.90
2018-05-04T18:07:49.901Z,17.80
2018-05-04T18:10:18.528Z,17.70
2018-05-04T18:12:50.836Z,17.60
2018-05-04T18:15:19.455Z,17.50
2018-05-04T18:17:48.087Z,17.40
2018-05-04T18:20:16.751Z,17.30
2018-05-04T18:22:45.403Z,17.20
2018-05-04T18:25:14.042Z,17.10
2018-05-04T18:27:42.654Z,17.00
2018-05-04T18:30:11.255Z,16.90
2018-05-04T18:32:39.883Z,16.80
2018-05-04T18:35:08.530Z,16.70
2018-05-04T18:37:37.123Z,16.70
2018-05-04T18:40:05.824Z,16.60
2018-05-04T18:42:34.447Z,16.50
2018-05-04T18:45:03.243Z,16.40
2018-05-04T18:47:38.473Z,16.20
2018-05-04T18:50:07.297Z,16.20
2018-05-04T18:52:35.983Z,16.10
2018-05-04T18:55:05.523Z,16.10
2018-05-04T18:57:34.389Z,16.00
2018-05-04T19:00:05.539Z,15.90
2018-05-04T19:02:40.427Z,15.80
2018-05-04T19:05:09.827Z,15.70
2018-05-04T19:07:39.247Z,15.60
2018-05-04T19:10:08.373Z,15.60
2018-05-04T19:12:38.023Z,15.50
2018-05-04T19:15:06.779Z,15.40
2018-05-04T19:17:35.439Z,15.40
2018-05-04T19:20:04.485Z,15.30
2018-05-04T19:22:34.434Z,15.20
2018-05-04T19:25:03.977Z,15.10
2018-05-04T19:27:33.311Z,15.10
2018-05-04T19:30:05.662Z,15.10
2018-05-04T19:32:35.218Z,14.90
2018-05-04T19:35:08.206Z,14.90
2018-05-04T19:37:38.992Z,14.90
2018-05-04T19:40:12.371Z,14.80
2018-05-04T19:42:42.190Z,14.80
2018-05-04T19:45:11.361Z,14.70
2018-05-04T19:47:40.460Z,14.70
2018-05-04T19:50:15.725Z,14.60
2018-05-04T19:52:44.743Z,14.60
2018-05-04T19:55:13.404Z,14.50
2018-05-04T19:57:42.080Z,14.40
2018-05-04T20:00:11.483Z,14.30
2018-05-04T20:02:40.208Z,14.30
2018-05-04T20:05:09.002Z,14.30
2018-05-04T20:07:39.906Z,14.20
2018-05-04T20:10:09.058Z,14.20
2018-05-04T20:12:39.271Z,14.20
2018-05-04T20:15:08.047Z,14.10
2018-05-04T20:17:37.895Z,14.10
2018-05-04T20:20:06.244Z,14.00
2018-05-04T20:22:35.099Z,13.90
2018-05-04T20:25:04.824Z,13.90
2018-05-04T20:27:33.740Z,13.90
2018-05-04T20:30:02.400Z,13.90
2018-05-04T20:32:31.596Z,13.90
2018-05-04T20:35:00.245Z,13.80
2018-05-04T20:37:29.044Z,13.80
2018-05-04T20:39:57.646Z,13.70
2018-05-04T20:42:26.889Z,13.70
2018-05-04T20:44:55.586Z,13.70
2018-05-04T20:47:24.268Z,13.70
2018-05-04T20:49:52.974Z,13.70
2018-05-04T20:52:21.666Z,13.60
2018-05-04T20:54:50.304Z,13.60
2018-05-04T20:57:19.794Z,13.60
2018-05-04T20:59:48.106Z,13.50
2018-05-04T21:02:17.523Z,13.50
2018-05-04T21:04:46.299Z,13.50
2018-05-04T21:07:15.698Z,13.50
2018-05-04T21:09:44.872Z,13.40
2018-05-04T21:12:13.626Z,13.40
2018-05-04T21:14:46.510Z,13.40
2018-05-04T21:17:15.163Z,13.40
2018-05-04T21:19:44.999Z,13.40
2018-05-04T21:22:13.646Z,13.30
2018-05-04T21:24:42.367Z,13.30
2018-05-04T21:27:17.913Z,13.30
2018-05-04T21:29:47.161Z,13.30
2018-05-04T21:32:15.858Z,13.30
2018-05-04T21:34:45.276Z,13.30
2018-05-04T21:37:14.191Z,13.30
2018-05-04T21:39:43.676Z,13.20
2018-05-04T21:42:15.355Z,13.20
2018-05-04T21:44:44.029Z,13.20
2018-05-04T21:47:12.847Z,13.20
2018-05-04T21:49:56.939Z,13.10
2018-05-04T21:52:25.447Z,13.10
2018-05-04T21:54:54.031Z,13.10
2018-05-04T21:57:22.686Z,13.10
2018-05-04T21:59:51.325Z,13.00
2018-05-04T22:02:19.954Z,13.00
2018-05-04T22:04:48.651Z,13.00
2018-05-04T22:07:23.091Z,12.90
2018-05-04T22:09:51.890Z,12.90
2018-05-04T22:12:35.314Z,12.90
2018-05-04T22:15:03.769Z,12.90
2018-05-04T22:17:32.175Z,12.80
2018-05-04T22:20:04.169Z,12.80
2018-05-04T22:22:32.831Z,12.70
2018-05-04T22:25:08.735Z,12.70
2018-05-04T22:27:37.394Z,12.70
2018-05-04T22:30:06.005Z,12.60
2018-05-04T22:32:40.141Z,12.60
2018-05-04T22:35:09.517Z,12.60
2018-05-04T22:37:38.132Z,12.60
2018-05-04T22:40:06.693Z,12.50
2018-05-04T22:42:35.216Z,12.50
2018-05-04T22:45:03.643Z,12.60
2018-05-04T22:47:32.273Z,12.50
2018-05-04T22:50:01.658Z,12.50
2018-05-04T22:52:30.275Z,12.50
2018-05-04T22:54:58.931Z,12.40
2018-05-04T22:57:27.542Z,12.40
2018-05-04T22:59:56.914Z,12.30
2018-05-04T23:02:25.553Z,12.30
2018-05-04T23:04:54.162Z,12.30
2018-05-04T23:07:23.808Z,12.30
2018-05-04T23:09:52.243Z,12.20
2018-05-04T23:12:20.880Z,12.20
2018-05-04T23:14:49.511Z,12.20
2018-05-04T23:17:18.336Z,12.20
2018-05-04T23:19:46.952Z,12.10
2018-05-04T23:22:27.599Z,12.10
2018-05-04T23:24:56.295Z,12.10
2018-05-04T23:27:24.952Z,12.10
2018-05-04T23:29:53.393Z,12.00
2018-05-04T23:35:35.679Z,12.00
2018-05-04T23:38:29.174Z,11.90
2018-05-04T23:40:57.822Z,11.90
2018-05-04T23:43:26.459Z,11.80
2018-05-04T23:45:55.068Z,11.80
2018-05-04T23:48:28.115Z,11.80
2018-05-04T23:50:56.777Z,11.80
2018-05-04T23:53:27.554Z,11.80
2018-05-04T23:55:56.191Z,11.80
2018-05-04T23:58:24.690Z,11.70
